Current Weather

Centro Met. Antartico Pdte. E

Centro Met. Antartico Pdte. E, Antarctica (SCRM)

Report from: Friday, July 12, 2024 10:00 PM UTC
Current time: Friday, July 12, 2024 11:20 PM UTC

Nearby weather – Weather history – Daily summaries
Weather forecast

Present weatherBlowing snow
Temperature-3.0°C (26.6°F)
Wind chill-12.9°C (8.9°F)
Dew point-4.0°C (24.8°F)
Winds 32 kts (16.5 m/s, 36.8 mph) West-Southwest (240°)
Visibility3937 ft. (1.2 km)
Clouds Ceiling: Overcast 1,200 ft. (366 m)
Altimeter28.61 in.Hg (969 mB)
Relative humidity93 %
Density altitude-602 ft. (-183 m)
Remarks No significant changes expected in the next two hours
Flight conditions Low Instrument Meteorological Conditions
Raw dataSCRM 122200Z 24032KT 1200 BLSN OVC012 M03/M04 Q0969 NOSIG
An unhandled exception has occurred. See browser dev tools for details. Reload 🗙